createdAt,value
2022-09-20T00:01:17.367Z,7.54
2022-09-20T00:03:45.842Z,7.52
2022-09-20T00:06:14.623Z,7.54
2022-09-20T00:08:41.762Z,7.53
2022-09-20T00:11:10.346Z,7.52
2022-09-20T00:13:38.317Z,7.50
2022-09-20T00:16:10.677Z,7.48
2022-09-20T00:18:38.105Z,7.51
2022-09-20T00:21:05.797Z,7.51
2022-09-20T00:23:33.157Z,7.50
2022-09-20T00:26:01.460Z,7.52
2022-09-20T00:28:29.466Z,7.52
2022-09-20T00:30:57.269Z,7.50
2022-09-20T00:33:45.509Z,7.50
2022-09-20T00:36:13.371Z,7.50
2022-09-20T00:38:40.847Z,7.50
2022-09-20T00:41:08.412Z,7.49
2022-09-20T00:43:37.501Z,7.49
2022-09-20T00:46:05.622Z,7.47
2022-09-20T00:48:33.426Z,7.47
2022-09-20T00:51:08.973Z,7.48
2022-09-20T00:53:40.929Z,7.45
2022-09-20T00:56:19.790Z,7.43
2022-09-20T00:58:51.103Z,7.41
2022-09-20T01:01:18.637Z,7.38
2022-09-20T01:03:46.855Z,7.40
2022-09-20T01:06:15.954Z,7.39
2022-09-20T01:08:45.947Z,7.39
2022-09-20T01:11:13.397Z,7.38
2022-09-20T01:13:40.583Z,7.37
2022-09-20T01:16:08.212Z,7.36
2022-09-20T01:18:36.909Z,7.37
2022-09-20T01:21:05.736Z,7.37
2022-09-20T01:23:45.229Z,7.37
2022-09-20T01:26:35.410Z,7.36
2022-09-20T01:29:20.902Z,7.35
2022-09-20T01:31:53.577Z,7.32
2022-09-20T01:34:37.121Z,7.33
2022-09-20T01:37:22.287Z,7.31
2022-09-20T01:39:52.500Z,7.35
2022-09-20T01:42:21.459Z,7.34
2022-09-20T01:44:56.635Z,7.32
2022-09-20T01:47:23.876Z,7.34
2022-09-20T01:49:54.112Z,7.31
2022-09-20T01:52:21.275Z,7.30
2022-09-20T01:54:48.325Z,7.33
2022-09-20T01:57:26.493Z,7.33
2022-09-20T02:00:03.888Z,7.35
2022-09-20T02:02:32.119Z,7.36
2022-09-20T02:05:11.600Z,7.34
2022-09-20T02:07:56.771Z,7.35
2022-09-20T02:10:36.045Z,7.36
2022-09-20T02:13:04.382Z,7.36
2022-09-20T02:15:49.798Z,7.33
2022-09-20T02:18:35.375Z,7.31
2022-09-20T02:21:20.935Z,7.29
2022-09-20T02:24:11.182Z,7.30
2022-09-20T02:26:50.585Z,7.30
2022-09-20T02:29:17.779Z,7.29
2022-09-20T02:32:07.583Z,7.26
2022-09-20T02:34:37.899Z,7.24
2022-09-20T02:37:25.632Z,7.27
2022-09-20T02:40:13.268Z,7.26
2022-09-20T02:42:43.233Z,7.24
2022-09-20T02:45:48.969Z,7.25
2022-09-20T02:48:19.444Z,7.26
2022-09-20T02:51:04.763Z,7.26
2022-09-20T02:53:31.894Z,7.27
2022-09-20T02:59:09.420Z,7.25
2022-09-20T03:01:55.292Z,7.24
2022-09-20T03:04:22.452Z,7.24
2022-09-20T03:06:55.193Z,7.24
2022-09-20T03:09:37.589Z,7.24
2022-09-20T03:12:23.395Z,7.25
2022-09-20T03:15:05.749Z,7.26
2022-09-20T03:17:43.335Z,7.27
2022-09-20T03:20:22.538Z,7.26
2022-09-20T03:23:08.114Z,7.28
2022-09-20T03:25:48.074Z,7.28
2022-09-20T03:28:21.218Z,7.29
2022-09-20T03:31:03.320Z,7.30
2022-09-20T03:33:45.145Z,7.30
2022-09-20T03:36:18.269Z,7.30
2022-09-20T03:39:03.927Z,7.29
2022-09-20T03:42:00.364Z,7.28
2022-09-20T03:44:27.335Z,7.28
2022-09-20T03:47:13.202Z,7.29
2022-09-20T03:49:48.615Z,7.28
2022-09-20T03:52:22.027Z,7.27
2022-09-20T03:55:14.093Z,7.28
2022-09-20T03:57:53.000Z,7.23
2022-09-20T04:00:33.919Z,7.23
2022-09-20T04:03:10.472Z,7.23
2022-09-20T04:05:48.667Z,7.23
2022-09-20T04:08:39.368Z,7.24
2022-09-20T04:11:32.264Z,7.25
2022-09-20T04:14:11.269Z,7.24
2022-09-20T04:16:43.310Z,7.26
2022-09-20T04:19:14.877Z,7.26
2022-09-20T04:21:56.237Z,7.25
2022-09-20T04:24:41.833Z,7.25
2022-09-20T04:27:23.657Z,7.26
2022-09-20T04:29:55.667Z,7.26
2022-09-20T04:32:30.725Z,7.27
2022-09-20T04:35:31.701Z,7.27
2022-09-20T04:38:05.489Z,7.26
2022-09-20T04:40:47.486Z,7.27
2022-09-20T04:43:24.588Z,7.25
2022-09-20T04:46:19.574Z,7.25
2022-09-20T04:49:10.208Z,7.26
2022-09-20T04:51:59.025Z,7.28
2022-09-20T04:54:36.045Z,7.25
2022-09-20T04:57:21.212Z,7.26
2022-09-20T05:00:08.828Z,7.26
2022-09-20T05:02:41.998Z,7.27
2022-09-20T05:05:27.610Z,7.28
2022-09-20T05:07:57.688Z,7.28
2022-09-20T05:10:30.742Z,7.29
2022-09-20T05:12:57.871Z,7.30
2022-09-20T05:15:36.419Z,7.30
2022-09-20T05:18:13.395Z,7.30
2022-09-20T05:20:47.457Z,7.28
2022-09-20T05:23:23.928Z,7.28
2022-09-20T05:26:24.839Z,7.28
2022-09-20T05:28:54.623Z,7.30
2022-09-20T05:31:26.771Z,7.32
2022-09-20T05:34:12.638Z,7.34
2022-09-20T05:36:46.419Z,7.36
2022-09-20T05:39:32.382Z,7.37
2022-09-20T05:42:04.608Z,7.36
2022-09-20T05:44:44.769Z,7.37
2022-09-20T05:47:11.760Z,7.36
2022-09-20T05:49:51.387Z,7.32
2022-09-20T05:52:18.394Z,7.32
2022-09-20T05:55:04.363Z,7.34
2022-09-20T05:57:39.711Z,7.35
2022-09-20T06:00:18.176Z,7.36
2022-09-20T06:03:04.413Z,7.35
2022-09-20T06:05:50.816Z,7.38
2022-09-20T06:08:17.865Z,7.37
2022-09-20T06:11:05.160Z,7.37
2022-09-20T06:13:38.163Z,7.36
2022-09-20T06:16:06.834Z,7.35
2022-09-20T06:18:45.448Z,7.31
2022-09-20T06:21:24.643Z,7.31
2022-09-20T06:23:57.202Z,7.31
2022-09-20T06:26:27.329Z,7.30
2022-09-20T06:28:58.435Z,7.29
2022-09-20T06:31:26.171Z,7.26
2022-09-20T06:33:57.067Z,7.27
2022-09-20T06:36:48.677Z,7.28
2022-09-20T06:39:37.547Z,7.30
2022-09-20T06:42:04.680Z,7.38
2022-09-20T06:44:31.866Z,7.43
2022-09-20T06:46:59.064Z,7.42
2022-09-20T06:49:27.319Z,7.42
2022-09-20T06:51:55.897Z,7.46
2022-09-20T06:54:23.232Z,7.47
2022-09-20T06:56:51.027Z,7.48
2022-09-20T06:59:18.047Z,7.54
2022-09-20T07:01:45.135Z,7.67
2022-09-20T07:04:12.216Z,7.71
2022-09-20T07:06:39.414Z,7.77
2022-09-20T07:09:07.016Z,7.79
2022-09-20T07:11:34.979Z,7.82
2022-09-20T07:14:02.087Z,7.82
2022-09-20T07:16:29.466Z,7.93
2022-09-20T07:18:56.911Z,8.06
2022-09-20T07:21:24.184Z,8.26
2022-09-20T07:23:51.420Z,8.35
2022-09-20T07:26:20.295Z,8.50
2022-09-20T07:28:47.404Z,8.67
2022-09-20T07:31:14.495Z,8.79
2022-09-20T07:33:41.653Z,8.90
2022-09-20T07:36:09.658Z,8.99
2022-09-20T07:38:36.639Z,9.19
2022-09-20T07:41:03.699Z,9.19
2022-09-20T07:43:31.047Z,9.38
2022-09-20T07:45:59.361Z,9.38
2022-09-20T07:48:28.924Z,9.39
2022-09-20T07:50:57.601Z,9.32
2022-09-20T07:53:24.758Z,9.38
2022-09-20T07:56:02.359Z,9.61
2022-09-20T07:58:30.421Z,9.75
2022-09-20T08:00:58.697Z,10.00
2022-09-20T08:03:26.382Z,9.97
2022-09-20T08:05:58.995Z,10.03
2022-09-20T08:08:26.156Z,10.24
2022-09-20T08:10:55.851Z,10.12
2022-09-20T08:16:11.304Z,10.46
2022-09-20T08:18:38.364Z,10.47
2022-09-20T08:21:07.011Z,10.32
2022-09-20T08:23:34.988Z,10.24
2022-09-20T08:26:02.753Z,10.26
2022-09-20T08:28:30.515Z,10.17
2022-09-20T08:31:01.637Z,10.08
2022-09-20T08:33:28.684Z,10.01
2022-09-20T08:35:57.831Z,10.02
2022-09-20T08:41:20.688Z,9.99
2022-09-20T08:43:53.868Z,9.83
2022-09-20T08:46:23.641Z,9.84
2022-09-20T08:48:52.138Z,9.84
2022-09-20T08:51:23.231Z,9.96
2022-09-20T08:53:53.983Z,10.07
2022-09-20T08:56:22.650Z,10.18
2022-09-20T08:58:50.655Z,10.23
2022-09-20T09:01:27.958Z,10.12
2022-09-20T09:03:58.987Z,10.06
2022-09-20T09:06:26.700Z,10.36
2022-09-20T09:08:56.774Z,10.44
2022-09-20T09:11:23.899Z,10.47
2022-09-20T09:13:56.647Z,10.49
2022-09-20T09:16:31.821Z,10.53
2022-09-20T09:19:20.227Z,10.63
2022-09-20T09:21:47.248Z,10.74
2022-09-20T09:24:16.899Z,10.77
2022-09-20T09:26:43.949Z,10.86
2022-09-20T09:29:14.062Z,10.85
2022-09-20T09:31:41.182Z,10.78
2022-09-20T09:34:26.939Z,10.63
2022-09-20T09:36:55.381Z,10.59
2022-09-20T09:39:24.391Z,10.62
2022-09-20T09:41:51.703Z,10.64
2022-09-20T09:44:23.631Z,10.86
2022-09-20T09:46:51.350Z,11.11
2022-09-20T09:49:22.638Z,11.26
2022-09-20T09:52:01.653Z,11.22
2022-09-20T09:54:33.611Z,11.14
2022-09-20T09:57:10.936Z,11.32
2022-09-20T09:59:50.263Z,11.48
2022-09-20T10:02:35.918Z,11.57
2022-09-20T10:05:14.074Z,11.68
2022-09-20T10:07:59.643Z,11.68
2022-09-20T10:10:45.542Z,11.49
2022-09-20T10:13:21.381Z,11.36
2022-09-20T10:16:00.535Z,11.13
2022-09-20T10:18:37.488Z,11.18
2022-09-20T10:21:12.893Z,11.25
2022-09-20T10:24:04.337Z,11.31
2022-09-20T10:26:49.024Z,11.37
2022-09-20T10:29:26.089Z,11.49
2022-09-20T10:32:00.322Z,11.66
2022-09-20T10:34:45.964Z,11.78
2022-09-20T10:37:36.832Z,11.77
2022-09-20T10:40:13.020Z,11.88
2022-09-20T10:43:15.739Z,11.81
2022-09-20T10:48:49.652Z,12.14
2022-09-20T10:51:17.416Z,12.22
2022-09-20T10:53:54.938Z,12.34
2022-09-20T10:56:28.188Z,12.41
2022-09-20T10:59:14.341Z,12.32
2022-09-20T11:01:54.409Z,12.43
2022-09-20T11:04:21.497Z,12.54
2022-09-20T11:06:48.523Z,12.39
2022-09-20T11:09:19.374Z,11.92
2022-09-20T11:11:49.366Z,11.83
2022-09-20T11:14:28.147Z,11.74
2022-09-20T11:17:02.294Z,11.70
2022-09-20T11:19:37.204Z,11.73
2022-09-20T11:22:10.404Z,11.82
2022-09-20T11:24:47.952Z,11.91
2022-09-20T11:27:18.651Z,12.03
2022-09-20T11:29:58.006Z,12.14
2022-09-20T11:32:28.473Z,12.14
2022-09-20T11:34:57.344Z,12.19
2022-09-20T11:37:30.190Z,12.23
2022-09-20T11:40:13.212Z,12.23
2022-09-20T11:42:41.599Z,12.12
2022-09-20T11:45:11.955Z,12.07
2022-09-20T11:47:54.371Z,12.16
2022-09-20T11:50:35.369Z,12.18
2022-09-20T11:53:11.544Z,12.20
2022-09-20T11:55:38.586Z,12.14
2022-09-20T11:58:08.191Z,11.99
2022-09-20T12:00:37.660Z,11.90
2022-09-20T12:03:07.552Z,11.99
2022-09-20T12:05:38.041Z,11.99
2022-09-20T12:08:18.052Z,11.95
2022-09-20T12:10:53.943Z,12.04
2022-09-20T12:13:24.392Z,11.99
2022-09-20T12:16:06.175Z,12.05
2022-09-20T12:18:36.395Z,12.13
2022-09-20T12:21:03.440Z,12.17
2022-09-20T12:23:40.340Z,12.18
2022-09-20T12:26:07.679Z,12.18
2022-09-20T12:28:36.170Z,12.18
2022-09-20T12:31:18.759Z,12.15
2022-09-20T12:33:54.968Z,12.20
2022-09-20T12:36:23.019Z,12.25
2022-09-20T12:38:56.813Z,12.37
2022-09-20T12:41:28.692Z,12.36
2022-09-20T12:43:58.303Z,12.26
2022-09-20T12:46:33.552Z,12.22
2022-09-20T12:49:32.368Z,12.25
2022-09-20T12:52:18.195Z,12.35
2022-09-20T12:54:53.276Z,12.46
2022-09-20T12:57:28.946Z,12.49
2022-09-20T12:59:57.687Z,12.58
2022-09-20T13:02:44.830Z,12.62
2022-09-20T13:05:32.122Z,12.61
2022-09-20T13:08:02.967Z,12.47
2022-09-20T13:10:31.136Z,12.33
2022-09-20T13:13:02.286Z,12.34
2022-09-20T13:15:29.610Z,12.32
2022-09-20T13:18:00.327Z,12.39
2022-09-20T13:20:31.076Z,12.44
2022-09-20T13:23:02.979Z,12.39
2022-09-20T13:25:30.205Z,12.51
2022-09-20T13:28:20.509Z,12.62
2022-09-20T13:30:48.279Z,12.75
2022-09-20T13:33:22.734Z,12.73
2022-09-20T13:35:54.413Z,12.64
2022-09-20T13:38:24.991Z,12.56
2022-09-20T13:40:54.061Z,12.39
2022-09-20T13:43:28.247Z,12.19
2022-09-20T13:45:57.373Z,12.11
2022-09-20T13:48:26.270Z,12.13
2022-09-20T13:50:54.026Z,12.08
2022-09-20T13:53:39.990Z,12.09
2022-09-20T13:56:16.428Z,12.24
2022-09-20T13:58:43.588Z,12.31
2022-09-20T14:01:40.269Z,12.33
2022-09-20T14:04:09.149Z,12.31
2022-09-20T14:06:36.446Z,12.26
2022-09-20T14:09:10.463Z,12.18
2022-09-20T14:11:38.912Z,12.03
2022-09-20T14:14:07.912Z,11.93
2022-09-20T14:16:38.447Z,11.88
2022-09-20T14:19:07.889Z,11.90
2022-09-20T14:21:36.684Z,11.85
2022-09-20T14:24:08.480Z,11.88
2022-09-20T14:26:36.720Z,11.80
2022-09-20T14:29:22.603Z,11.71
2022-09-20T14:31:49.727Z,11.70
2022-09-20T14:34:16.762Z,11.70
2022-09-20T14:36:44.240Z,11.64
2022-09-20T14:39:15.429Z,11.67
2022-09-20T14:41:43.450Z,11.68
2022-09-20T14:44:23.755Z,11.74
2022-09-20T14:46:50.863Z,11.74
2022-09-20T14:49:26.823Z,11.67
2022-09-20T14:51:54.688Z,11.65
2022-09-20T14:54:29.987Z,11.65
2022-09-20T14:56:58.152Z,11.71
2022-09-20T14:59:26.180Z,11.76
2022-09-20T15:01:59.218Z,11.79
2022-09-20T15:04:28.104Z,11.77
2022-09-20T15:06:56.539Z,11.75
2022-09-20T15:09:23.813Z,11.73
2022-09-20T15:12:00.931Z,11.71
2022-09-20T15:14:28.274Z,11.66
2022-09-20T15:16:55.727Z,11.61
2022-09-20T15:19:22.787Z,11.40
2022-09-20T15:21:49.849Z,11.32
2022-09-20T15:24:18.742Z,11.25
2022-09-20T15:26:46.139Z,11.20
2022-09-20T15:29:17.315Z,11.15
2022-09-20T15:31:46.272Z,11.06
2022-09-20T15:34:14.116Z,10.93
2022-09-20T15:36:41.511Z,10.89
2022-09-20T15:39:08.634Z,10.90
2022-09-20T15:41:35.794Z,10.88
2022-09-20T15:44:03.638Z,10.86
2022-09-20T15:46:31.052Z,10.84
2022-09-20T15:49:00.330Z,10.81
2022-09-20T15:51:30.376Z,10.73
2022-09-20T15:53:58.816Z,10.63
2022-09-20T15:56:30.295Z,10.61
2022-09-20T15:59:01.639Z,10.53
2022-09-20T16:01:39.757Z,10.54
2022-09-20T16:04:08.287Z,10.52
2022-09-20T16:06:36.095Z,10.50
2022-09-20T16:09:04.083Z,10.52
2022-09-20T16:11:31.213Z,10.53
2022-09-20T16:13:59.175Z,10.50
2022-09-20T16:16:27.154Z,10.47
2022-09-20T16:19:13.101Z,10.40
2022-09-20T16:21:41.220Z,10.37
2022-09-20T16:24:09.232Z,10.39
2022-09-20T16:26:36.432Z,10.39
2022-09-20T16:29:11.522Z,10.35
2022-09-20T16:31:47.693Z,10.35
2022-09-20T16:34:17.737Z,10.35
2022-09-20T16:36:45.776Z,10.36
2022-09-20T16:39:13.659Z,10.37
2022-09-20T16:41:41.096Z,10.39
2022-09-20T16:44:08.726Z,10.40
2022-09-20T16:46:38.697Z,10.40
2022-09-20T16:49:07.247Z,10.40
2022-09-20T16:51:38.592Z,10.39
2022-09-20T16:54:13.197Z,10.38
2022-09-20T16:56:41.611Z,10.35
2022-09-20T16:59:09.240Z,10.33
2022-09-20T17:01:37.006Z,10.15
2022-09-20T17:04:08.221Z,9.80
2022-09-20T17:06:37.060Z,9.57
2022-09-20T17:09:05.130Z,9.44
2022-09-20T17:11:33.589Z,9.32
2022-09-20T17:14:01.061Z,9.24
2022-09-20T17:16:29.872Z,9.24
2022-09-20T17:18:58.303Z,9.23
2022-09-20T17:21:26.266Z,9.24
2022-09-20T17:23:55.312Z,9.26
2022-09-20T17:26:23.591Z,9.26
2022-09-20T17:28:51.893Z,9.26
2022-09-20T17:31:24.154Z,9.21
2022-09-20T17:33:51.675Z,9.19
2022-09-20T17:36:20.116Z,9.16
2022-09-20T17:38:48.094Z,9.14
2022-09-20T17:41:16.553Z,9.11
2022-09-20T17:43:44.238Z,9.06
2022-09-20T17:46:16.371Z,8.94
2022-09-20T17:48:48.966Z,8.85
2022-09-20T17:51:17.192Z,8.87
2022-09-20T17:53:44.733Z,8.92
2022-09-20T17:56:12.945Z,8.96
2022-09-20T17:58:40.762Z,8.97
2022-09-20T18:01:12.560Z,9.00
2022-09-20T18:03:41.370Z,9.04
2022-09-20T18:06:16.201Z,9.04
2022-09-20T18:09:02.983Z,8.98
2022-09-20T18:11:34.945Z,8.89
2022-09-20T18:14:02.641Z,8.82
2022-09-20T18:16:31.036Z,8.75
2022-09-20T18:18:59.745Z,8.71
2022-09-20T18:21:27.814Z,8.68
2022-09-20T18:23:55.948Z,8.64
2022-09-20T18:26:24.560Z,8.63
2022-09-20T18:28:57.515Z,8.52
2022-09-20T18:31:26.144Z,8.45
2022-09-20T18:33:56.905Z,8.47
2022-09-20T18:36:27.374Z,8.46
2022-09-20T18:38:55.029Z,8.44
2022-09-20T18:41:23.986Z,8.43
2022-09-20T18:43:51.508Z,8.44
2022-09-20T18:46:24.885Z,8.45
2022-09-20T18:48:52.691Z,8.45
2022-09-20T18:51:20.252Z,8.39
2022-09-20T18:53:47.922Z,8.31
2022-09-20T18:56:25.984Z,8.29
2022-09-20T18:58:54.424Z,8.24
2022-09-20T19:01:27.285Z,8.20
2022-09-20T19:04:17.946Z,8.22
2022-09-20T19:07:05.312Z,8.27
2022-09-20T19:09:51.385Z,8.22
2022-09-20T19:12:39.369Z,8.10
2022-09-20T19:15:41.871Z,8.05
2022-09-20T19:18:15.044Z,8.02
2022-09-20T19:20:57.441Z,8.02
2022-09-20T19:23:25.348Z,8.02
2022-09-20T19:26:03.751Z,8.00
2022-09-20T19:28:31.004Z,7.97
2022-09-20T19:30:58.304Z,7.95
2022-09-20T19:33:25.500Z,7.96
2022-09-20T19:35:52.667Z,7.97
2022-09-20T19:38:38.207Z,7.99
2022-09-20T19:41:07.478Z,7.99
2022-09-20T19:43:59.559Z,7.95
2022-09-20T19:46:36.095Z,7.82
2022-09-20T19:49:03.224Z,7.79
2022-09-20T19:51:32.152Z,7.75
2022-09-20T19:53:59.253Z,7.69
2022-09-20T19:56:27.703Z,7.61
2022-09-20T19:58:56.127Z,7.56
2022-09-20T20:01:24.205Z,7.52
2022-09-20T20:03:52.305Z,7.52
2022-09-20T20:06:19.307Z,7.49
2022-09-20T20:08:54.561Z,7.51
2022-09-20T20:11:40.439Z,7.50
2022-09-20T20:14:17.733Z,7.40
2022-09-20T20:17:05.144Z,7.27
2022-09-20T20:19:32.244Z,7.21
2022-09-20T20:22:03.041Z,7.16
2022-09-20T20:24:49.097Z,7.14
2022-09-20T20:27:16.094Z,7.07
2022-09-20T20:29:43.118Z,6.99
2022-09-20T20:32:10.290Z,6.97
2022-09-20T20:34:37.570Z,6.95
2022-09-20T20:37:05.221Z,6.89
2022-09-20T20:39:32.507Z,6.84
2022-09-20T20:42:02.438Z,6.77
2022-09-20T20:44:30.588Z,6.72
2022-09-20T20:46:57.664Z,6.69
2022-09-20T20:49:24.884Z,6.67
2022-09-20T20:51:52.016Z,6.65
2022-09-20T20:54:19.064Z,6.64
2022-09-20T20:56:46.240Z,6.66
2022-09-20T20:59:13.710Z,6.67
2022-09-20T21:01:45.713Z,6.69
2022-09-20T21:04:13.366Z,6.70
2022-09-20T21:06:40.800Z,6.72
2022-09-20T21:09:08.900Z,6.75
2022-09-20T21:11:37.141Z,6.75
2022-09-20T21:14:06.558Z,6.76
2022-09-20T21:16:37.634Z,6.76
2022-09-20T21:19:05.742Z,6.77
2022-09-20T21:21:35.002Z,6.75
2022-09-20T21:24:03.249Z,6.73
2022-09-20T21:26:34.437Z,6.69
2022-09-20T21:29:02.358Z,6.69
2022-09-20T21:31:30.856Z,6.66
2022-09-20T21:33:58.026Z,6.64
2022-09-20T21:36:29.382Z,6.64
2022-09-20T21:38:56.856Z,6.61
2022-09-20T21:41:27.316Z,6.61
2022-09-20T21:43:55.751Z,6.60
2022-09-20T21:46:24.358Z,6.60
2022-09-20T21:48:51.631Z,6.58
2022-09-20T21:51:20.386Z,6.54
2022-09-20T21:53:48.292Z,6.53
2022-09-20T21:56:17.568Z,6.50
2022-09-20T21:58:45.874Z,6.45
2022-09-20T22:01:14.304Z,6.43
2022-09-20T22:03:42.705Z,6.44
2022-09-20T22:06:11.049Z,6.44
2022-09-20T22:08:39.296Z,6.42
2022-09-20T22:11:10.228Z,6.40
2022-09-20T22:13:41.503Z,6.39
2022-09-20T22:16:10.702Z,6.32
2022-09-20T22:18:39.314Z,6.27
2022-09-20T22:21:08.201Z,6.25
2022-09-20T22:23:35.356Z,6.23
2022-09-20T22:26:03.562Z,6.21
2022-09-20T22:28:30.897Z,6.16
2022-09-20T22:31:02.263Z,6.12
2022-09-20T22:33:30.867Z,6.09
2022-09-20T22:35:58.054Z,6.07
2022-09-20T22:38:25.050Z,6.01
2022-09-20T22:40:52.951Z,5.92
2022-09-20T22:43:20.051Z,5.88
2022-09-20T22:45:47.055Z,5.88
2022-09-20T22:48:14.127Z,5.87
2022-09-20T22:50:41.474Z,5.84
2022-09-20T22:53:08.478Z,5.78
2022-09-20T22:55:35.656Z,5.73
2022-09-20T22:58:02.901Z,5.74
2022-09-20T23:00:29.943Z,5.73
2022-09-20T23:03:02.092Z,5.67
2022-09-20T23:05:29.247Z,5.62
2022-09-20T23:07:56.305Z,5.54
2022-09-20T23:10:23.426Z,5.51
2022-09-20T23:12:50.887Z,5.51
2022-09-20T23:15:18.059Z,5.57
2022-09-20T23:17:45.235Z,5.59
2022-09-20T23:20:12.596Z,5.55
2022-09-20T23:22:39.639Z,5.52
2022-09-20T23:25:06.902Z,5.46
2022-09-20T23:27:33.948Z,5.40
2022-09-20T23:30:00.992Z,5.36
2022-09-20T23:32:28.051Z,5.38
2022-09-20T23:34:55.094Z,5.40
2022-09-20T23:37:22.132Z,5.42
2022-09-20T23:39:49.146Z,5.42
2022-09-20T23:42:16.185Z,5.39
2022-09-20T23:44:43.226Z,5.37
2022-09-20T23:47:10.264Z,5.36
2022-09-20T23:49:37.302Z,5.36
2022-09-20T23:52:04.470Z,5.39
2022-09-20T23:54:31.506Z,5.40
2022-09-20T23:56:59.151Z,5.40
2022-09-20T23:59:26.234Z,5.41
